Time,TemperatureF,DewpointF,PressureIn,WindDirection,WindDirectionDegrees,WindSpeedMPH,WindSpeedGustMPH,Humidity,HourlyPrecipIn,Conditions,Clouds,dailyrainin,SoftwareType,DateUTC
2013-05-16 00:01:00,68.0,49.7,29.97,East,90,5.4,5.4,52,0.00,,---,0.00,VWS V14.01,2013-05-16 04:01:00,
2013-05-16 00:06:00,68.0,49.7,29.97,South,186,2.7,5.4,52,0.00,,---,0.00,VWS V14.01,2013-05-16 04:06:00,
2013-05-16 00:11:00,68.0,49.7,29.97,SE,137,4.0,4.0,52,0.00,,---,0.00,VWS V14.01,2013-05-16 04:11:00,
2013-05-16 00:16:00,68.0,49.7,29.97,WNW,295,2.7,2.7,52,0.00,,---,0.00,VWS V14.01,2013-05-16 04:16:00,
2013-05-16 00:21:00,68.0,49.7,29.97,SSW,211,3.6,3.6,52,0.00,,---,0.00,VWS V14.01,2013-05-16 04:21:00,
2013-05-16 00:26:00,68.0,49.7,29.97,South,185,3.6,3.6,52,0.00,,---,0.00,VWS V14.01,2013-05-16 04:26:00,
2013-05-16 00:31:00,67.8,50.1,29.97,SSE,162,3.6,3.6,53,0.00,,---,0.00,VWS V14.01,2013-05-16 04:31:00,
2013-05-16 00:36:00,67.8,50.1,29.97,SW,219,3.1,3.1,53,0.00,,---,0.00,VWS V14.01,2013-05-16 04:36:00,
2013-05-16 00:41:00,67.8,50.1,29.97,NW,319,2.7,2.7,53,0.00,,---,0.00,VWS V14.01,2013-05-16 04:41:00,
2013-05-16 00:46:00,67.6,50.4,29.97,South,189,4.0,4.0,54,0.00,,---,0.00,VWS V14.01,2013-05-16 04:46:00,
2013-05-16 00:47:00,67.6,50.4,29.97,South,189,4.0,4.0,54,0.00,,---,0.00,VWS V14.01,2013-05-16 04:47:00,
2013-05-16 00:51:00,67.6,50.4,29.97,ENE,62,3.6,3.6,54,0.00,,---,0.00,VWS V14.01,2013-05-16 04:51:00,
2013-05-16 00:52:00,67.6,50.4,29.97,ENE,62,3.6,3.6,54,0.00,,---,0.00,VWS V14.01,2013-05-16 04:52:00,
2013-05-16 00:56:00,67.6,50.4,29.97,West,274,3.1,3.1,54,0.00,,---,0.00,VWS V14.01,2013-05-16 04:56:00,
2013-05-16 00:57:00,67.6,50.4,29.97,West,274,3.1,3.1,54,0.00,,---,0.00,VWS V14.01,2013-05-16 04:57:00,
2013-05-16 01:01:00,67.6,50.4,29.97,SSE,154,5.4,5.4,54,0.00,,---,0.00,VWS V14.01,2013-05-16 05:01:00,
2013-05-16 01:02:00,67.6,50.4,29.97,SSE,154,5.4,5.4,54,0.00,,---,0.00,VWS V14.01,2013-05-16 05:02:00,
2013-05-16 01:06:00,67.6,50.4,29.97,NW,310,0.0,2.7,54,0.00,,---,0.00,VWS V14.01,2013-05-16 05:06:00,
2013-05-16 01:07:00,67.6,50.4,29.97,SW,227,4.9,4.9,54,0.00,,---,0.00,VWS V14.01,2013-05-16 05:07:00,
2013-05-16 01:11:00,67.6,49.9,29.97,SW,227,4.9,4.9,53,0.00,,---,0.00,VWS V14.01,2013-05-16 05:11:00,
2013-05-16 01:12:00,67.6,49.9,29.97,SW,227,4.9,4.9,53,0.00,,---,0.00,VWS V14.01,2013-05-16 05:12:00,
2013-05-16 01:16:00,67.6,49.9,29.97,South,186,2.7,2.7,53,0.00,,---,0.00,VWS V14.01,2013-05-16 05:16:00,
2013-05-16 01:17:00,67.5,49.8,29.97,South,186,2.7,2.7,53,0.00,,---,0.00,VWS V14.01,2013-05-16 05:17:00,
2013-05-16 01:21:00,67.5,49.8,29.97,SW,231,2.2,2.2,53,0.00,,---,0.00,VWS V14.01,2013-05-16 05:21:00,
2013-05-16 01:22:00,67.5,49.8,29.97,SSE,150,3.6,3.6,53,0.00,,---,0.00,VWS V14.01,2013-05-16 05:22:00,
2013-05-16 01:26:00,67.5,49.8,29.97,SE,136,3.1,3.1,53,0.00,,---,0.00,VWS V14.01,2013-05-16 05:26:00,
2013-05-16 01:27:00,67.5,49.8,29.97,SE,136,3.1,3.1,53,0.00,,---,0.00,VWS V14.01,2013-05-16 05:27:00,
2013-05-16 01:32:00,67.5,49.8,29.97,WSW,245,3.1,3.1,53,0.00,,---,0.00,VWS V14.01,2013-05-16 05:32:00,
2013-05-16 01:37:00,67.3,49.6,29.97,South,180,2.7,2.7,53,0.00,,---,0.00,VWS V14.01,2013-05-16 05:37:00,
2013-05-16 01:42:00,67.3,49.6,29.97,NW,313,0.0,0.0,53,0.00,,---,0.00,VWS V14.01,2013-05-16 05:42:00,
2013-05-16 01:47:00,67.3,50.1,29.97,West,274,0.0,0.0,54,0.00,,---,0.00,VWS V14.01,2013-05-16 05:47:00,
2013-05-16 01:52:00,67.3,50.1,29.97,South,181,2.2,2.2,54,0.00,,---,0.00,VWS V14.01,2013-05-16 05:52:00,
2013-05-16 01:57:00,67.1,49.9,29.97,SSE,166,0.0,0.0,54,0.00,,---,0.00,VWS V14.01,2013-05-16 05:57:00,
2013-05-16 02:02:00,66.9,49.8,29.97,NNE,22,0.0,0.0,54,0.00,,---,0.00,VWS V14.01,2013-05-16 06:02:00,
2013-05-16 02:07:00,66.9,50.2,29.97,NNE,22,0.0,0.0,55,0.00,,---,0.00,VWS V14.01,2013-05-16 06:07:00,
2013-05-16 02:08:00,66.9,50.2,29.97,NNE,22,0.0,0.0,55,0.00,,---,0.00,VWS V14.01,2013-05-16 06:08:00,
2013-05-16 02:12:00,66.9,50.2,29.94,South,190,3.6,3.6,55,0.00,,---,0.00,VWS V14.01,2013-05-16 06:12:00,
2013-05-16 02:13:00,66.9,50.2,29.94,South,190,3.6,3.6,55,0.00,,---,0.00,VWS V14.01,2013-05-16 06:13:00,
2013-05-16 02:17:00,66.7,50.1,29.94,SE,136,2.7,2.7,55,0.00,,---,0.00,VWS V14.01,2013-05-16 06:17:00,
2013-05-16 02:18:00,66.7,50.1,29.94,SE,136,2.7,2.7,55,0.00,,---,0.00,VWS V14.01,2013-05-16 06:18:00,
2013-05-16 02:22:00,66.7,50.1,29.94,SSE,151,0.0,0.0,55,0.00,,---,0.00,VWS V14.01,2013-05-16 06:22:00,
2013-05-16 02:23:00,66.7,50.1,29.94,SE,136,0.0,0.0,55,0.00,,---,0.00,VWS V14.01,2013-05-16 06:23:00,
2013-05-16 02:27:00,66.6,50.4,29.94,SE,131,3.6,3.6,56,0.00,,---,0.00,VWS V14.01,2013-05-16 06:27:00,
2013-05-16 02:28:00,66.6,50.4,29.94,SE,131,3.6,3.6,56,0.00,,---,0.00,VWS V14.01,2013-05-16 06:28:00,
2013-05-16 02:32:00,66.6,50.4,29.94,SSE,166,0.0,0.0,56,0.00,,---,0.00,VWS V14.01,2013-05-16 06:32:00,
2013-05-16 02:33:00,66.6,50.4,29.94,SSE,166,0.0,0.0,56,0.00,,---,0.00,VWS V14.01,2013-05-16 06:33:00,
2013-05-16 02:37:00,66.4,50.2,29.94,SSE,157,0.0,0.0,56,0.00,,---,0.00,VWS V14.01,2013-05-16 06:37:00,
2013-05-16 02:38:00,66.4,50.2,29.94,SSE,157,0.0,0.0,56,0.00,,---,0.00,VWS V14.01,2013-05-16 06:38:00,
2013-05-16 02:42:00,66.4,50.7,29.94,ESE,112,0.0,0.0,57,0.00,,---,0.00,VWS V14.01,2013-05-16 06:42:00,
2013-05-16 02:43:00,66.4,50.7,29.94,ESE,112,0.0,0.0,57,0.00,,---,0.00,VWS V14.01,2013-05-16 06:43:00,
2013-05-16 02:47:00,66.4,50.7,29.94,SE,142,0.0,0.0,57,0.00,,---,0.00,VWS V14.01,2013-05-16 06:47:00,
2013-05-16 02:48:00,66.4,50.7,29.94,SE,142,0.0,0.0,57,0.00,,---,0.00,VWS V14.01,2013-05-16 06:48:00,
2013-05-16 02:52:00,66.4,51.2,29.94,NW,313,2.2,2.2,58,0.00,,---,0.00,VWS V14.01,2013-05-16 06:52:00,
2013-05-16 02:53:00,66.4,51.2,29.94,NW,313,2.2,2.2,58,0.00,,---,0.00,VWS V14.01,2013-05-16 06:53:00,
2013-05-16 02:57:00,66.4,51.2,29.94,East,82,0.0,0.0,58,0.00,,---,0.00,VWS V14.01,2013-05-16 06:57:00,
2013-05-16 02:58:00,66.4,51.2,29.94,East,82,0.0,0.0,58,0.00,,---,0.00,VWS V14.01,2013-05-16 06:58:00,
2013-05-16 03:02:00,66.4,51.6,29.94,SW,225,0.0,0.0,59,0.00,,---,0.00,VWS V14.01,2013-05-16 07:02:00,
2013-05-16 03:03:00,66.4,51.6,29.94,SW,225,0.0,0.0,59,0.00,,---,0.00,VWS V14.01,2013-05-16 07:03:00,
2013-05-16 03:08:00,66.4,52.1,29.94,SSW,196,0.0,0.0,60,0.00,,---,0.00,VWS V14.01,2013-05-16 07:08:00,
2013-05-16 03:13:00,66.4,52.1,29.94,SSW,196,0.0,0.0,60,0.00,,---,0.00,VWS V14.01,2013-05-16 07:13:00,
2013-05-16 03:18:00,66.4,52.1,29.94,SSW,212,0.0,0.0,60,0.00,,---,0.00,VWS V14.01,2013-05-16 07:18:00,
2013-05-16 03:23:00,66.2,51.9,29.94,SW,234,0.0,2.2,60,0.00,,---,0.00,VWS V14.01,2013-05-16 07:23:00,
2013-05-16 03:28:00,66.2,52.4,29.94,SW,217,0.0,0.0,61,0.00,,---,0.00,VWS V14.01,2013-05-16 07:28:00,
2013-05-16 03:33:00,66.2,52.4,29.94,SW,230,0.0,0.0,61,0.00,,---,0.00,VWS V14.01,2013-05-16 07:33:00,
2013-05-16 03:38:00,66.2,52.8,29.94,SW,230,0.0,0.0,62,0.00,,---,0.00,VWS V14.01,2013-05-16 07:38:00,
2013-05-16 03:39:00,66.2,52.8,29.94,SW,230,0.0,0.0,62,0.00,,---,0.00,VWS V14.01,2013-05-16 07:39:00,
2013-05-16 03:43:00,66.0,53.1,29.94,SW,217,0.0,0.0,63,0.00,,---,0.00,VWS V14.01,2013-05-16 07:43:00,
2013-05-16 03:44:00,66.0,53.1,29.94,SW,217,0.0,0.0,63,0.00,,---,0.00,VWS V14.01,2013-05-16 07:44:00,
2013-05-16 03:48:00,65.8,52.9,29.94,SE,138,0.0,0.0,63,0.00,,---,0.00,VWS V14.01,2013-05-16 07:48:00,
2013-05-16 03:49:00,65.8,52.9,29.94,SW,218,0.0,0.0,63,0.00,,---,0.00,VWS V14.01,2013-05-16 07:49:00,
2013-05-16 03:53:00,65.8,52.9,29.94,WSW,237,0.0,0.0,63,0.00,,---,0.00,VWS V14.01,2013-05-16 07:53:00,
2013-05-16 03:54:00,65.8,52.9,29.94,WSW,237,0.0,0.0,63,0.00,,---,0.00,VWS V14.01,2013-05-16 07:54:00,
2013-05-16 03:58:00,65.8,53.3,29.94,SSE,153,0.0,0.0,64,0.00,,---,0.00,VWS V14.01,2013-05-16 07:58:00,
2013-05-16 03:59:00,65.8,53.3,29.94,SSE,153,0.0,0.0,64,0.00,,---,0.00,VWS V14.01,2013-05-16 07:59:00,
2013-05-16 04:03:00,65.8,53.3,29.94,SE,142,0.0,0.0,64,0.00,,---,0.00,VWS V14.01,2013-05-16 08:03:00,
2013-05-16 04:04:00,65.8,53.3,29.94,SE,142,0.0,0.0,64,0.00,,---,0.00,VWS V14.01,2013-05-16 08:04:00,
2013-05-16 04:08:00,65.8,53.3,29.94,South,190,0.0,2.2,64,0.00,,---,0.00,VWS V14.01,2013-05-16 08:08:00,
2013-05-16 04:09:00,65.8,53.3,29.94,South,190,0.0,2.2,64,0.00,,---,0.00,VWS V14.01,2013-05-16 08:09:00,
2013-05-16 04:13:00,65.5,53.0,29.94,SSW,204,0.0,0.0,64,0.00,,---,0.00,VWS V14.01,2013-05-16 08:13:00,
2013-05-16 04:14:00,65.5,53.4,29.94,SSW,204,0.0,0.0,65,0.00,,---,0.00,VWS V14.01,2013-05-16 08:14:00,
2013-05-16 04:18:00,65.5,53.4,29.94,South,169,0.0,0.0,65,0.00,,---,0.00,VWS V14.01,2013-05-16 08:18:00,
2013-05-16 04:19:00,65.3,53.2,29.94,South,169,0.0,0.0,65,0.00,,---,0.00,VWS V14.01,2013-05-16 08:19:00,
2013-05-16 04:23:00,65.3,53.2,29.94,SSE,147,0.0,0.0,65,0.00,,---,0.00,VWS V14.01,2013-05-16 08:23:00,
2013-05-16 04:24:00,65.3,53.2,29.94,SSE,147,0.0,0.0,65,0.00,,---,0.00,VWS V14.01,2013-05-16 08:24:00,
2013-05-16 04:28:00,65.1,53.5,29.94,SSE,147,0.0,0.0,66,0.00,,---,0.00,VWS V14.01,2013-05-16 08:28:00,
2013-05-16 04:29:00,65.1,53.5,29.94,SSE,147,0.0,0.0,66,0.00,,---,0.00,VWS V14.01,2013-05-16 08:29:00,
2013-05-16 04:33:00,65.1,53.5,29.94,NW,320,0.0,0.0,66,0.00,,---,0.00,VWS V14.01,2013-05-16 08:33:00,
2013-05-16 04:34:00,65.1,53.5,29.94,NW,320,0.0,0.0,66,0.00,,---,0.00,VWS V14.01,2013-05-16 08:34:00,
2013-05-16 04:38:00,65.1,54.3,29.94,SE,127,0.0,0.0,68,0.00,,---,0.00,VWS V14.01,2013-05-16 08:38:00,
2013-05-16 04:39:00,65.1,54.3,29.94,SE,127,0.0,0.0,68,0.00,,---,0.00,VWS V14.01,2013-05-16 08:39:00,
2013-05-16 04:44:00,65.1,54.3,29.94,SE,127,0.0,0.0,68,0.00,,---,0.00,VWS V14.01,2013-05-16 08:44:00,
2013-05-16 04:49:00,65.1,54.3,29.94,SSE,152,0.0,0.0,68,0.00,,---,0.00,VWS V14.01,2013-05-16 08:49:00,
2013-05-16 04:54:00,65.1,54.7,29.94,SE,128,0.0,0.0,69,0.00,,---,0.00,VWS V14.01,2013-05-16 08:54:00,
2013-05-16 04:59:00,65.3,55.3,29.94,ESE,111,0.0,0.0,70,0.00,,---,0.00,VWS V14.01,2013-05-16 08:59:00,
2013-05-16 05:04:00,65.3,55.3,29.94,NW,308,0.0,0.0,70,0.00,,---,0.00,VWS V14.01,2013-05-16 09:04:00,
2013-05-16 05:05:00,65.3,55.3,29.94,SE,140,3.1,3.1,70,0.00,,---,0.00,VWS V14.01,2013-05-16 09:05:00,
2013-05-16 05:09:00,65.3,55.3,29.94,SE,146,0.0,0.0,70,0.00,,---,0.00,VWS V14.01,2013-05-16 09:09:00,
2013-05-16 05:10:00,65.3,55.3,29.94,SE,146,0.0,0.0,70,0.00,,---,0.00,VWS V14.01,2013-05-16 09:10:00,
2013-05-16 05:14:00,65.3,55.3,29.94,SSE,164,0.0,0.0,70,0.00,,---,0.00,VWS V14.01,2013-05-16 09:14:00,
2013-05-16 05:15:00,65.3,55.3,29.94,SSE,157,4.0,4.0,70,0.00,,---,0.00,VWS V14.01,2013-05-16 09:15:00,
2013-05-16 05:19:00,65.5,55.5,29.94,SW,235,0.0,0.0,70,0.00,,---,0.00,VWS V14.01,2013-05-16 09:19:00,
2013-05-16 05:20:00,65.5,55.5,29.94,SSE,164,0.0,0.0,70,0.00,,---,0.00,VWS V14.01,2013-05-16 09:20:00,
2013-05-16 05:24:00,65.3,55.3,29.94,SSE,164,0.0,0.0,70,0.00,,---,0.00,VWS V14.01,2013-05-16 09:24:00,
2013-05-16 05:25:00,65.3,55.3,29.94,SSE,164,0.0,0.0,70,0.00,,---,0.00,VWS V14.01,2013-05-16 09:25:00,
2013-05-16 05:29:00,65.3,55.7,29.94,SE,143,0.0,0.0,71,0.00,,---,0.00,VWS V14.01,2013-05-16 09:29:00,
2013-05-16 05:30:00,65.3,55.7,29.94,SE,143,0.0,0.0,71,0.00,,---,0.00,VWS V14.01,2013-05-16 09:30:00,
2013-05-16 05:34:00,65.3,55.7,29.94,North,4,0.0,0.0,71,0.00,,---,0.00,VWS V14.01,2013-05-16 09:34:00,
2013-05-16 05:35:00,65.3,55.7,29.94,North,4,0.0,0.0,71,0.00,,---,0.00,VWS V14.01,2013-05-16 09:35:00,
2013-05-16 05:39:00,65.3,55.7,29.94,SSW,202,2.2,2.7,71,0.00,,---,0.00,VWS V14.01,2013-05-16 09:39:00,
2013-05-16 05:40:00,65.3,55.7,29.94,SSW,202,2.2,2.2,71,0.00,,---,0.00,VWS V14.01,2013-05-16 09:40:00,
2013-05-16 05:44:00,65.3,56.0,29.94,ESE,111,2.2,2.2,72,0.00,,---,0.00,VWS V14.01,2013-05-16 09:44:00,
2013-05-16 05:45:00,65.3,56.0,29.94,ESE,111,2.2,2.2,72,0.00,,---,0.00,VWS V14.01,2013-05-16 09:45:00,
2013-05-16 05:46:00,65.3,56.0,29.94,ESE,111,2.2,2.2,72,0.00,,---,0.00,VWS V14.01,2013-05-16 09:46:00,
2013-05-16 05:49:00,65.3,56.0,29.94,NW,326,0.0,0.0,72,0.00,,---,0.00,VWS V14.01,2013-05-16 09:49:00,
2013-05-16 05:50:00,65.3,56.0,29.94,NW,326,0.0,0.0,72,0.00,,---,0.00,VWS V14.01,2013-05-16 09:50:00,
2013-05-16 05:51:00,65.3,56.0,29.94,SE,146,0.0,0.0,72,0.00,,---,0.00,VWS V14.01,2013-05-16 09:51:00,
2013-05-16 05:54:00,65.3,56.0,29.94,SE,146,0.0,0.0,72,0.00,,---,0.00,VWS V14.01,2013-05-16 09:54:00,
2013-05-16 05:55:00,65.3,56.0,29.94,SE,146,0.0,0.0,72,0.00,,---,0.00,VWS V14.01,2013-05-16 09:55:00,
2013-05-16 05:56:00,65.3,56.0,29.94,South,171,0.0,0.0,72,0.00,,---,0.00,VWS V14.01,2013-05-16 09:56:00,
2013-05-16 05:59:00,65.3,56.0,29.94,WNW,297,2.2,2.2,72,0.00,,---,0.00,VWS V14.01,2013-05-16 09:59:00,
2013-05-16 06:00:00,65.3,56.0,29.94,SE,138,2.2,2.2,72,0.00,,---,0.00,VWS V14.01,2013-05-16 10:00:00,
2013-05-16 06:01:00,65.3,56.0,29.94,SE,138,0.0,0.0,72,0.00,,---,0.00,VWS V14.01,2013-05-16 10:01:00,
2013-05-16 06:04:00,65.3,56.0,29.94,SE,138,0.0,0.0,72,0.00,,---,0.00,VWS V14.01,2013-05-16 10:04:00,
2013-05-16 06:05:00,65.3,56.0,29.94,SSE,160,0.0,0.0,72,0.00,,---,0.00,VWS V14.01,2013-05-16 10:05:00,
2013-05-16 06:06:00,65.3,56.0,29.94,SSE,160,0.0,0.0,72,0.00,,---,0.00,VWS V14.01,2013-05-16 10:06:00,
2013-05-16 06:09:00,65.3,56.4,29.94,SSW,194,0.0,0.0,73,0.00,,---,0.00,VWS V14.01,2013-05-16 10:09:00,
2013-05-16 06:10:00,65.3,56.4,29.94,SSW,194,0.0,0.0,73,0.00,,---,0.00,VWS V14.01,2013-05-16 10:10:00,
2013-05-16 06:11:00,65.3,56.4,29.94,SSW,194,0.0,0.0,73,0.00,,---,0.00,VWS V14.01,2013-05-16 10:11:00,
2013-05-16 06:14:00,65.3,56.4,29.94,SSW,201,2.2,2.2,73,0.00,,---,0.00,VWS V14.01,2013-05-16 10:14:00,
2013-05-16 06:15:00,65.3,56.4,29.94,SSW,201,2.2,2.2,73,0.00,,---,0.00,VWS V14.01,2013-05-16 10:15:00,
2013-05-16 06:16:00,65.3,56.4,29.94,ESE,119,2.7,2.7,73,0.00,,---,0.00,VWS V14.01,2013-05-16 10:16:00,
2013-05-16 06:19:00,65.5,57.0,29.94,SSW,196,0.0,0.0,74,0.00,,---,0.00,VWS V14.01,2013-05-16 10:19:00,
2013-05-16 06:20:00,65.5,57.0,29.94,SSW,196,0.0,0.0,74,0.00,,---,0.00,VWS V14.01,2013-05-16 10:20:00,
2013-05-16 06:21:00,65.5,57.0,29.94,SSW,196,0.0,0.0,74,0.00,,---,0.00,VWS V14.01,2013-05-16 10:21:00,
2013-05-16 06:24:00,65.5,57.0,29.94,South,175,2.7,2.7,74,0.00,,---,0.00,VWS V14.01,2013-05-16 10:24:00,
2013-05-16 06:25:00,65.5,57.0,29.94,ENE,74,0.0,0.0,74,0.00,,---,0.00,VWS V14.01,2013-05-16 10:25:00,
2013-05-16 06:26:00,65.7,57.2,29.94,WSW,252,3.1,3.1,74,0.00,,---,0.00,VWS V14.01,2013-05-16 10:26:00,
2013-05-16 06:29:00,65.7,57.2,29.94,ESE,122,3.1,3.1,74,0.00,,---,0.00,VWS V14.01,2013-05-16 10:29:00,
2013-05-16 06:30:00,65.7,57.2,29.94,ESE,122,3.1,3.1,74,0.00,,---,0.00,VWS V14.01,2013-05-16 10:30:00,
2013-05-16 06:31:00,65.7,57.2,29.94,ESE,122,3.1,3.1,74,0.00,,---,0.00,VWS V14.01,2013-05-16 10:31:00,
2013-05-16 06:35:00,65.7,57.5,29.94,SW,214,3.1,3.1,75,0.00,,---,0.00,VWS V14.01,2013-05-16 10:35:00,
2013-05-16 06:36:00,65.8,57.7,29.94,NNE,30,0.0,0.0,75,0.00,,---,0.00,VWS V14.01,2013-05-16 10:36:00,
2013-05-16 06:37:00,65.8,57.7,29.94,SSW,211,0.0,0.0,75,0.00,,---,0.00,VWS V14.01,2013-05-16 10:37:00,
2013-05-16 06:40:00,65.8,57.7,29.94,SSE,164,0.0,0.0,75,0.00,,---,0.00,VWS V14.01,2013-05-16 10:40:00,
2013-05-16 06:41:00,65.8,57.7,29.94,SSE,164,0.0,0.0,75,0.00,,---,0.00,VWS V14.01,2013-05-16 10:41:00,
2013-05-16 06:42:00,65.8,57.7,29.94,SSE,164,0.0,0.0,75,0.00,,---,0.00,VWS V14.01,2013-05-16 10:42:00,
2013-05-16 06:44:00,66.0,57.9,29.94,SSE,150,4.0,4.0,75,0.00,,---,0.00,VWS V14.01,2013-05-16 10:44:00,
2013-05-16 06:45:00,66.2,58.0,29.94,SSE,150,4.0,4.0,75,0.00,,---,0.00,VWS V14.01,2013-05-16 10:45:00,
2013-05-16 06:46:00,66.2,58.0,29.94,SSE,150,4.0,4.0,75,0.00,,---,0.00,VWS V14.01,2013-05-16 10:46:00,
2013-05-16 06:47:00,66.2,58.0,29.94,SW,230,0.0,4.0,75,0.00,,---,0.00,VWS V14.01,2013-05-16 10:47:00,
2013-05-16 06:49:00,66.2,58.0,29.94,NW,313,3.1,6.7,75,0.00,,---,0.00,VWS V14.01,2013-05-16 10:49:00,
2013-05-16 06:50:00,66.2,58.0,29.94,WSW,245,2.2,3.1,75,0.00,,---,0.00,VWS V14.01,2013-05-16 10:50:00,
2013-05-16 06:51:00,66.2,58.0,29.94,WSW,245,2.2,3.1,75,0.00,,---,0.00,VWS V14.01,2013-05-16 10:51:00,
2013-05-16 06:52:00,66.2,58.0,29.94,WSW,245,2.2,2.2,75,0.00,,---,0.00,VWS V14.01,2013-05-16 10:52:00,
2013-05-16 06:55:00,66.2,58.0,29.94,WSW,257,0.0,0.0,75,0.00,,---,0.00,VWS V14.01,2013-05-16 10:55:00,
2013-05-16 06:56:00,66.2,58.0,29.94,WSW,257,0.0,0.0,75,0.00,,---,0.00,VWS V14.01,2013-05-16 10:56:00,
2013-05-16 06:57:00,66.7,58.2,29.94,WSW,257,0.0,0.0,74,0.00,,---,0.00,VWS V14.01,2013-05-16 10:57:00,
2013-05-16 07:00:00,66.7,58.2,29.94,West,262,3.1,3.1,74,0.00,,---,0.00,VWS V14.01,2013-05-16 11:00:00,
2013-05-16 07:01:00,66.7,58.2,29.94,NW,310,0.0,3.1,74,0.00,,---,0.00,VWS V14.01,2013-05-16 11:01:00,
2013-05-16 07:02:00,66.9,58.4,29.94,South,182,5.4,5.4,74,0.00,,---,0.00,VWS V14.01,2013-05-16 11:02:00,
2013-05-16 07:05:00,66.9,58.0,29.94,WSW,245,4.0,4.0,73,0.00,,---,0.00,VWS V14.01,2013-05-16 11:05:00,
2013-05-16 07:06:00,66.9,58.0,29.94,SSE,168,2.7,4.0,73,0.00,,---,0.00,VWS V14.01,2013-05-16 11:06:00,
2013-05-16 07:07:00,67.3,58.0,29.94,SSE,168,2.7,2.7,72,0.00,,---,0.00,VWS V14.01,2013-05-16 11:07:00,
2013-05-16 07:10:00,67.3,58.0,29.94,East,84,3.1,3.1,72,0.00,,---,0.00,VWS V14.01,2013-05-16 11:10:00,
2013-05-16 07:11:00,67.5,57.7,29.94,East,84,3.1,3.1,71,0.00,,---,0.00,VWS V14.01,2013-05-16 11:11:00,
2013-05-16 07:12:00,67.5,57.7,29.94,East,84,3.1,3.1,71,0.00,,---,0.00,VWS V14.01,2013-05-16 11:12:00,
2013-05-16 07:15:00,67.5,57.3,29.94,ESE,118,3.1,3.1,70,0.00,,---,0.00,VWS V14.01,2013-05-16 11:15:00,
2013-05-16 07:16:00,67.5,57.3,29.94,NNW,338,2.7,3.1,70,0.00,,---,0.00,VWS V14.01,2013-05-16 11:16:00,
2013-05-16 07:17:00,67.5,57.3,29.94,West,271,4.0,4.0,70,0.00,,---,0.00,VWS V14.01,2013-05-16 11:17:00,
2013-05-16 07:20:00,67.8,56.9,29.97,South,183,3.1,3.1,68,0.00,,---,0.00,VWS V14.01,2013-05-16 11:20:00,
2013-05-16 07:21:00,67.8,56.9,29.97,South,183,3.1,3.1,68,0.00,,---,0.00,VWS V14.01,2013-05-16 11:21:00,
2013-05-16 07:22:00,67.8,56.9,29.97,WSW,256,2.7,2.7,68,0.00,,---,0.00,VWS V14.01,2013-05-16 11:22:00,
2013-05-16 07:25:00,68.0,56.2,29.97,NNE,15,3.1,3.1,66,0.00,,---,0.00,VWS V14.01,2013-05-16 11:25:00,
2013-05-16 07:26:00,68.0,56.2,29.97,NNE,15,3.1,3.1,66,0.00,,---,0.00,VWS V14.01,2013-05-16 11:26:00,
2013-05-16 07:27:00,68.0,56.2,29.97,NNE,15,3.1,3.1,66,0.00,,---,0.00,VWS V14.01,2013-05-16 11:27:00,
2013-05-16 07:30:00,68.2,55.1,29.97,East,82,4.0,4.0,63,0.00,,---,0.00,VWS V14.01,2013-05-16 11:30:00,
2013-05-16 07:31:00,68.4,54.4,29.97,East,82,4.0,4.0,61,0.00,,---,0.00,VWS V14.01,2013-05-16 11:31:00,
2013-05-16 07:32:00,68.4,54.4,29.97,East,82,4.0,4.0,61,0.00,,---,0.00,VWS V14.01,2013-05-16 11:32:00,
2013-05-16 07:33:00,68.4,54.4,29.97,SSE,165,3.6,3.6,61,0.00,,---,0.00,VWS V14.01,2013-05-16 11:33:00,
2013-05-16 07:35:00,68.4,54.4,29.97,NE,44,2.7,3.6,61,0.00,,---,0.00,VWS V14.01,2013-05-16 11:35:00,
2013-05-16 07:36:00,68.4,54.4,29.97,NE,44,2.7,2.7,61,0.00,,---,0.00,VWS V14.01,2013-05-16 11:36:00,
2013-05-16 07:37:00,68.5,53.2,29.97,NE,44,2.7,2.7,58,0.00,,---,0.00,VWS V14.01,2013-05-16 11:37:00,
2013-05-16 07:38:00,68.5,53.2,29.97,SW,226,5.8,5.8,58,0.00,,---,0.00,VWS V14.01,2013-05-16 11:38:00,
2013-05-16 07:40:00,68.7,53.4,29.97,SW,226,3.6,3.6,58,0.00,,---,0.00,VWS V14.01,2013-05-16 11:40:00,
2013-05-16 07:41:00,68.7,53.4,29.97,SW,226,3.6,3.6,58,0.00,,---,0.00,VWS V14.01,2013-05-16 11:41:00,
2013-05-16 07:42:00,68.7,53.4,29.97,SW,226,3.6,3.6,58,0.00,,---,0.00,VWS V14.01,2013-05-16 11:42:00,
2013-05-16 07:43:00,68.7,53.4,29.97,WNW,288,3.6,3.6,58,0.00,,---,0.00,VWS V14.01,2013-05-16 11:43:00,
2013-05-16 07:46:00,68.7,53.4,29.97,WNW,288,3.6,3.6,58,0.00,,---,0.00,VWS V14.01,2013-05-16 11:46:00,
2013-05-16 07:47:00,68.7,53.4,29.97,SW,222,4.0,4.0,58,0.00,,---,0.00,VWS V14.01,2013-05-16 11:47:00,
2013-05-16 07:48:00,68.7,53.4,29.97,SW,222,4.0,4.0,58,0.00,,---,0.00,VWS V14.01,2013-05-16 11:48:00,
2013-05-16 07:51:00,68.7,53.4,29.97,South,189,2.7,3.1,58,0.00,,---,0.00,VWS V14.01,2013-05-16 11:51:00,
2013-05-16 07:52:00,68.7,53.4,29.97,South,189,2.7,2.7,58,0.00,,---,0.00,VWS V14.01,2013-05-16 11:52:00,
2013-05-16 07:53:00,68.7,53.4,29.97,WNW,297,3.6,3.6,58,0.00,,---,0.00,VWS V14.01,2013-05-16 11:53:00,
2013-05-16 07:56:00,69.3,51.4,29.97,South,180,4.9,4.9,53,0.00,,---,0.00,VWS V14.01,2013-05-16 11:56:00,
2013-05-16 07:57:00,69.3,51.4,29.97,SW,231,3.6,4.9,53,0.00,,---,0.00,VWS V14.01,2013-05-16 11:57:00,
2013-05-16 07:58:00,69.3,51.4,29.97,SW,231,3.6,3.6,53,0.00,,---,0.00,VWS V14.01,2013-05-16 11:58:00,
2013-05-16 08:01:00,69.3,51.4,29.97,WSW,253,3.1,3.1,53,0.00,,---,0.00,VWS V14.01,2013-05-16 12:01:00,
2013-05-16 08:02:00,69.3,51.4,29.97,WSW,253,3.1,3.1,53,0.00,,---,0.00,VWS V14.01,2013-05-16 12:02:00,
2013-05-16 08:03:00,69.3,51.9,29.97,WSW,253,3.1,3.1,54,0.00,,---,0.00,VWS V14.01,2013-05-16 12:03:00,
2013-05-16 08:06:00,69.3,51.9,29.97,SW,235,6.3,6.3,54,0.00,,---,0.00,VWS V14.01,2013-05-16 12:06:00,
2013-05-16 08:07:00,69.3,51.9,29.97,SW,235,6.3,6.3,54,0.00,,---,0.00,VWS V14.01,2013-05-16 12:07:00,
2013-05-16 08:08:00,69.3,51.9,29.97,SSW,211,3.6,6.3,54,0.00,,---,0.00,VWS V14.01,2013-05-16 12:08:00,
2013-05-16 08:11:00,69.4,51.6,29.97,South,189,2.7,2.7,53,0.00,,---,0.00,VWS V14.01,2013-05-16 12:11:00,
2013-05-16 08:12:00,69.4,51.6,29.97,WSW,252,0.0,0.0,53,0.00,,---,0.00,VWS V14.01,2013-05-16 12:12:00,
2013-05-16 08:13:00,69.4,51.6,29.97,South,177,4.9,4.9,53,0.00,,---,0.00,VWS V14.01,2013-05-16 12:13:00,
2013-05-16 08:16:00,69.4,51.6,29.97,West,266,2.7,3.6,53,0.00,,---,0.00,VWS V14.01,2013-05-16 12:16:00,
2013-05-16 08:17:00,69.6,51.2,29.97,West,266,2.7,3.6,52,0.00,,---,0.00,VWS V14.01,2013-05-16 12:17:00,
2013-05-16 08:18:00,69.6,51.2,29.97,SSW,207,2.7,2.7,52,0.00,,---,0.00,VWS V14.01,2013-05-16 12:18:00,
2013-05-16 08:21:00,69.6,50.7,29.97,SSW,207,2.7,2.7,51,0.00,,---,0.00,VWS V14.01,2013-05-16 12:21:00,
2013-05-16 08:22:00,69.6,50.7,29.97,SSW,208,2.7,2.7,51,0.00,,---,0.00,VWS V14.01,2013-05-16 12:22:00,
2013-05-16 08:23:00,69.6,50.7,29.97,SSW,208,0.0,0.0,51,0.00,,---,0.00,VWS V14.01,2013-05-16 12:23:00,
2013-05-16 08:26:00,69.6,50.7,29.97,SSE,166,2.7,2.7,51,0.00,,---,0.00,VWS V14.01,2013-05-16 12:26:00,
2013-05-16 08:27:00,69.6,50.7,29.97,SSE,166,2.7,2.7,51,0.00,,---,0.00,VWS V14.01,2013-05-16 12:27:00,
2013-05-16 08:28:00,69.6,50.7,29.97,SSE,166,2.7,2.7,51,0.00,,---,0.00,VWS V14.01,2013-05-16 12:28:00,
2013-05-16 08:31:00,70.0,51.6,29.97,South,175,0.0,0.0,52,0.00,,---,0.00,VWS V14.01,2013-05-16 12:31:00,
2013-05-16 08:32:00,70.0,51.6,29.97,WNW,298,0.0,0.0,52,0.00,,---,0.00,VWS V14.01,2013-05-16 12:32:00,
2013-05-16 08:33:00,70.0,51.6,29.97,SE,135,4.9,4.9,52,0.00,,---,0.00,VWS V14.01,2013-05-16 12:33:00,
2013-05-16 08:36:00,70.2,51.2,29.97,SE,128,0.0,0.0,51,0.00,,---,0.00,VWS V14.01,2013-05-16 12:36:00,
2013-05-16 08:37:00,70.2,51.2,29.97,SE,128,0.0,0.0,51,0.00,,---,0.00,VWS V14.01,2013-05-16 12:37:00,
2013-05-16 08:38:00,70.3,51.4,29.97,SE,128,0.0,0.0,51,0.00,,---,0.00,VWS V14.01,2013-05-16 12:38:00,
2013-05-16 08:41:00,70.3,51.4,29.97,North,353,0.0,3.1,51,0.00,,---,0.00,VWS V14.01,2013-05-16 12:41:00,
2013-05-16 08:42:00,70.3,51.4,29.97,SE,133,3.1,3.1,51,0.00,,---,0.00,VWS V14.01,2013-05-16 12:42:00,
2013-05-16 08:43:00,70.5,51.0,29.97,NNW,329,3.6,3.6,50,0.00,,---,0.00,VWS V14.01,2013-05-16 12:43:00,
2013-05-16 08:46:00,70.7,51.2,29.97,WNW,292,2.7,2.7,50,0.00,,---,0.00,VWS V14.01,2013-05-16 12:46:00,
2013-05-16 08:47:00,70.7,51.2,29.97,WNW,292,2.7,2.7,50,0.00,,---,0.00,VWS V14.01,2013-05-16 12:47:00,
2013-05-16 08:48:00,70.7,51.2,29.97,South,184,4.0,4.0,50,0.00,,---,0.00,VWS V14.01,2013-05-16 12:48:00,
2013-05-16 08:52:00,70.7,51.2,29.97,SSW,197,4.0,4.0,50,0.00,,---,0.00,VWS V14.01,2013-05-16 12:52:00,
2013-05-16 08:53:00,71.2,51.1,29.97,SW,221,3.1,4.0,49,0.00,,---,0.00,VWS V14.01,2013-05-16 12:53:00,
2013-05-16 08:57:00,71.4,50.7,29.97,SSW,207,3.1,3.1,48,0.00,,---,0.00,VWS V14.01,2013-05-16 12:57:00,
2013-05-16 08:58:00,71.4,50.7,29.97,SW,227,4.0,4.0,48,0.00,,---,0.00,VWS V14.01,2013-05-16 12:58:00,
2013-05-16 08:59:00,71.4,50.7,29.97,SSE,155,2.2,4.0,48,0.00,,---,0.00,VWS V14.01,2013-05-16 12:59:00,
2013-05-16 09:02:00,71.4,50.7,29.97,NW,309,3.6,4.0,48,0.00,,---,0.00,VWS V14.01,2013-05-16 13:02:00,
2013-05-16 09:03:00,71.4,50.7,29.97,NW,309,3.6,3.6,48,0.00,,---,0.00,VWS V14.01,2013-05-16 13:03:00,
2013-05-16 09:04:00,71.1,49.8,29.97,West,264,2.2,3.6,47,0.00,,---,0.00,VWS V14.01,2013-05-16 13:04:00,
2013-05-16 09:07:00,71.1,49.8,29.97,NNW,327,0.0,3.1,47,0.00,,---,0.00,VWS V14.01,2013-05-16 13:07:00,
2013-05-16 09:08:00,70.9,49.7,29.97,West,264,3.1,3.1,47,0.00,,---,0.00,VWS V14.01,2013-05-16 13:08:00,
2013-05-16 09:09:00,70.9,49.7,29.97,SSE,150,6.3,6.3,47,0.00,,---,0.00,VWS V14.01,2013-05-16 13:09:00,
2013-05-16 09:12:00,70.7,50.6,29.97,NNE,25,2.2,2.2,49,0.00,,---,0.00,VWS V14.01,2013-05-16 13:12:00,
2013-05-16 09:13:00,70.7,50.6,29.97,NNE,25,2.2,2.2,49,0.00,,---,0.00,VWS V14.01,2013-05-16 13:13:00,
2013-05-16 09:14:00,70.7,50.6,29.97,South,175,0.0,2.2,49,0.00,,---,0.00,VWS V14.01,2013-05-16 13:14:00,
2013-05-16 09:17:00,71.2,51.7,29.97,NW,305,2.7,2.7,50,0.00,,---,0.00,VWS V14.01,2013-05-16 13:17:00,
2013-05-16 09:18:00,71.2,51.7,29.97,WSW,256,0.0,0.0,50,0.00,,---,0.00,VWS V14.01,2013-05-16 13:18:00,
2013-05-16 09:19:00,71.2,51.7,29.97,WSW,256,0.0,0.0,50,0.00,,---,0.00,VWS V14.01,2013-05-16 13:19:00,
2013-05-16 09:22:00,71.8,51.6,29.97,WSW,246,2.7,2.7,49,0.00,,---,0.00,VWS V14.01,2013-05-16 13:22:00,
2013-05-16 09:23:00,72.0,51.2,29.97,West,263,3.6,3.6,48,0.00,,---,0.00,VWS V14.01,2013-05-16 13:23:00,
2013-05-16 09:24:00,72.1,51.4,29.97,West,263,3.6,3.6,48,0.00,,---,0.00,VWS V14.01,2013-05-16 13:24:00,
2013-05-16 09:27:00,72.1,51.4,29.97,South,188,0.0,0.0,48,0.00,,---,0.00,VWS V14.01,2013-05-16 13:27:00,
2013-05-16 09:28:00,72.1,51.4,29.97,SSE,149,2.2,2.2,48,0.00,,---,0.00,VWS V14.01,2013-05-16 13:28:00,
2013-05-16 09:29:00,72.1,51.4,29.97,WNW,289,3.6,3.6,48,0.00,,---,0.00,VWS V14.01,2013-05-16 13:29:00,
2013-05-16 09:32:00,73.0,51.1,29.97,West,273,3.1,3.1,46,0.00,,---,0.00,VWS V14.01,2013-05-16 13:32:00,
2013-05-16 09:33:00,73.0,51.1,29.97,SSE,152,0.0,3.1,46,0.00,,---,0.00,VWS V14.01,2013-05-16 13:33:00,
2013-05-16 09:34:00,73.0,51.1,29.97,WNW,285,0.0,0.0,46,0.00,,---,0.00,VWS V14.01,2013-05-16 13:34:00,
2013-05-16 09:37:00,73.0,51.1,29.97,SW,227,3.1,3.1,46,0.00,,---,0.00,VWS V14.01,2013-05-16 13:37:00,
2013-05-16 09:38:00,73.8,50.5,29.97,SW,227,3.1,3.1,44,0.00,,---,0.00,VWS V14.01,2013-05-16 13:38:00,
2013-05-16 09:39:00,73.8,50.5,29.97,SW,227,2.7,3.1,44,0.00,,---,0.00,VWS V14.01,2013-05-16 13:39:00,
2013-05-16 09:42:00,73.9,50.7,29.97,SSW,194,2.7,3.1,44,0.00,,---,0.00,VWS V14.01,2013-05-16 13:42:00,
2013-05-16 09:43:00,73.9,50.7,29.97,SSW,194,2.7,2.7,44,0.00,,---,0.00,VWS V14.01,2013-05-16 13:43:00,
2013-05-16 09:44:00,73.9,50.7,29.97,SSW,194,2.7,2.7,44,0.00,,---,0.00,VWS V14.01,2013-05-16 13:44:00,
2013-05-16 09:47:00,74.3,49.8,29.97,East,100,3.1,3.1,42,0.00,,---,0.00,VWS V14.01,2013-05-16 13:47:00,
2013-05-16 09:48:00,74.3,49.8,29.97,East,100,3.1,3.1,42,0.00,,---,0.00,VWS V14.01,2013-05-16 13:48:00,
2013-05-16 09:49:00,74.3,49.8,29.97,South,185,0.0,0.0,42,0.00,,---,0.00,VWS V14.01,2013-05-16 13:49:00,
2013-05-16 09:52:00,74.3,49.8,29.97,SSW,198,2.7,2.7,42,0.00,,---,0.00,VWS V14.01,2013-05-16 13:52:00,
2013-05-16 09:53:00,74.3,49.8,29.97,South,188,0.0,0.0,42,0.00,,---,0.00,VWS V14.01,2013-05-16 13:53:00,
2013-05-16 09:54:00,74.3,49.8,29.97,WNW,302,3.6,3.6,42,0.00,,---,0.00,VWS V14.01,2013-05-16 13:54:00,
2013-05-16 09:57:00,74.5,49.9,29.97,NW,307,3.1,3.1,42,0.00,,---,0.00,VWS V14.01,2013-05-16 13:57:00,
2013-05-16 09:58:00,74.5,49.9,29.97,NW,307,3.1,3.1,42,0.00,,---,0.00,VWS V14.01,2013-05-16 13:58:00,
2013-05-16 09:59:00,74.5,49.9,29.97,NW,307,3.1,3.1,42,0.00,,---,0.00,VWS V14.01,2013-05-16 13:59:00,
2013-05-16 10:02:00,74.3,49.1,29.97,SSE,150,3.1,3.1,41,0.00,,---,0.00,VWS V14.01,2013-05-16 14:02:00,
2013-05-16 10:03:00,74.1,49.6,29.97,SSW,196,2.7,2.7,42,0.00,,---,0.00,VWS V14.01,2013-05-16 14:03:00,
2013-05-16 10:04:00,74.1,49.6,29.97,SSW,196,2.7,2.7,42,0.00,,---,0.00,VWS V14.01,2013-05-16 14:04:00,
2013-05-16 10:07:00,74.1,49.6,29.97,SW,219,2.7,2.7,42,0.00,,---,0.00,VWS V14.01,2013-05-16 14:07:00,
2013-05-16 10:08:00,74.3,50.4,29.97,West,280,3.1,3.1,43,0.00,,---,0.00,VWS V14.01,2013-05-16 14:08:00,
2013-05-16 10:09:00,74.3,50.4,29.97,West,280,3.1,3.1,43,0.00,,---,0.00,VWS V14.01,2013-05-16 14:09:00,
2013-05-16 10:12:00,74.8,50.2,29.97,SSW,207,3.6,3.6,42,0.00,,---,0.00,VWS V14.01,2013-05-16 14:12:00,
2013-05-16 10:13:00,74.8,50.2,29.97,SE,141,0.0,0.0,42,0.00,,---,0.00,VWS V14.01,2013-05-16 14:13:00,
2013-05-16 10:14:00,75.0,50.4,29.97,South,179,3.1,3.1,42,0.00,,---,0.00,VWS V14.01,2013-05-16 14:14:00,
2013-05-16 10:17:00,75.0,50.4,29.97,WSW,239,4.0,4.0,42,0.00,,---,0.00,VWS V14.01,2013-05-16 14:17:00,
2013-05-16 10:18:00,75.0,50.4,29.97,WSW,239,4.0,4.0,42,0.00,,---,0.00,VWS V14.01,2013-05-16 14:18:00,
2013-05-16 10:19:00,75.0,50.4,29.97,WSW,239,4.0,4.0,42,0.00,,---,0.00,VWS V14.01,2013-05-16 14:19:00,
2013-05-16 10:20:00,75.4,49.4,29.97,WSW,239,4.0,4.0,40,0.00,,---,0.00,VWS V14.01,2013-05-16 14:20:00,
2013-05-16 10:22:00,75.4,50.1,29.97,SSW,203,2.7,2.7,41,0.00,,---,0.00,VWS V14.01,2013-05-16 14:22:00,
2013-05-16 10:23:00,75.4,50.1,29.97,WSW,257,0.0,2.7,41,0.00,,---,0.00,VWS V14.01,2013-05-16 14:23:00,
2013-05-16 10:24:00,75.4,50.1,29.97,WSW,257,0.0,0.0,41,0.00,,---,0.00,VWS V14.01,2013-05-16 14:24:00,
2013-05-16 10:25:00,75.4,50.1,29.97,WSW,257,0.0,0.0,41,0.00,,---,0.00,VWS V14.01,2013-05-16 14:25:00,
2013-05-16 10:27:00,75.4,49.4,29.97,South,173,3.1,3.1,40,0.00,,---,0.00,VWS V14.01,2013-05-16 14:27:00,
2013-05-16 10:28:00,75.2,49.2,29.97,NE,43,3.1,3.1,40,0.00,,---,0.00,VWS V14.01,2013-05-16 14:28:00,
2013-05-16 10:29:00,75.4,49.4,29.97,NE,43,3.1,3.1,40,0.00,,---,0.00,VWS V14.01,2013-05-16 14:29:00,
2013-05-16 10:30:00,75.4,49.4,29.97,NE,43,3.1,3.1,40,0.00,,---,0.00,VWS V14.01,2013-05-16 14:30:00,
2013-05-16 10:32:00,75.4,49.4,29.97,SE,146,2.7,5.4,40,0.00,,---,0.00,VWS V14.01,2013-05-16 14:32:00,
2013-05-16 10:33:00,75.4,49.4,29.97,SE,146,2.7,2.7,40,0.00,,---,0.00,VWS V14.01,2013-05-16 14:33:00,
2013-05-16 10:34:00,75.4,49.4,29.97,SSE,168,6.3,6.3,40,0.00,,---,0.00,VWS V14.01,2013-05-16 14:34:00,
2013-05-16 10:35:00,75.4,49.4,29.97,SSE,149,5.8,5.8,40,0.00,,---,0.00,VWS V14.01,2013-05-16 14:35:00,
2013-05-16 10:37:00,75.7,49.7,29.97,SSE,150,3.6,3.6,40,0.00,,---,0.00,VWS V14.01,2013-05-16 14:37:00,
2013-05-16 10:38:00,75.7,49.7,29.97,SW,216,2.2,2.2,40,0.00,,---,0.00,VWS V14.01,2013-05-16 14:38:00,
2013-05-16 10:39:00,75.7,49.7,29.97,South,180,4.0,4.0,40,0.00,,---,0.00,VWS V14.01,2013-05-16 14:39:00,
2013-05-16 10:40:00,75.7,49.7,29.97,South,180,4.0,4.0,40,0.00,,---,0.00,VWS V14.01,2013-05-16 14:40:00,
2013-05-16 10:42:00,75.7,49.7,29.97,NW,323,0.0,0.0,40,0.00,,---,0.00,VWS V14.01,2013-05-16 14:42:00,
2013-05-16 10:44:00,75.7,49.7,29.97,NW,323,0.0,0.0,40,0.00,,---,0.00,VWS V14.01,2013-05-16 14:44:00,
2013-05-16 10:45:00,76.3,49.5,29.97,NW,323,0.0,0.0,39,0.00,,---,0.00,VWS V14.01,2013-05-16 14:45:00,
2013-05-16 10:47:00,76.3,49.5,29.97,NW,323,0.0,0.0,39,0.00,,---,0.00,VWS V14.01,2013-05-16 14:47:00,
2013-05-16 10:49:00,76.3,49.5,29.97,South,182,2.7,2.7,39,0.00,,---,0.00,VWS V14.01,2013-05-16 14:49:00,
2013-05-16 10:50:00,76.5,49.7,29.97,WNW,283,2.7,2.7,39,0.00,,---,0.00,VWS V14.01,2013-05-16 14:50:00,
2013-05-16 10:52:00,76.5,49.7,29.97,South,180,0.0,2.7,39,0.00,,---,0.00,VWS V14.01,2013-05-16 14:52:00,
2013-05-16 10:54:00,76.5,49.7,29.97,South,180,0.0,0.0,39,0.00,,---,0.00,VWS V14.01,2013-05-16 14:54:00,
2013-05-16 10:55:00,77.0,48.8,29.97,South,180,0.0,0.0,37,0.00,,---,0.00,VWS V14.01,2013-05-16 14:55:00,
2013-05-16 10:57:00,77.0,48.8,29.97,SW,219,4.0,4.0,37,0.00,,---,0.00,VWS V14.01,2013-05-16 14:57:00,
2013-05-16 10:59:00,77.0,48.8,29.97,West,268,0.0,0.0,37,0.00,,---,0.00,VWS V14.01,2013-05-16 14:59:00,
2013-05-16 11:00:00,77.2,48.9,29.97,West,268,0.0,0.0,37,0.00,,---,0.00,VWS V14.01,2013-05-16 15:00:00,
2013-05-16 11:02:00,77.2,48.9,29.97,South,177,0.0,0.0,37,0.00,,---,0.00,VWS V14.01,2013-05-16 15:02:00,
2013-05-16 11:04:00,77.2,48.9,29.97,South,177,0.0,0.0,37,0.00,,---,0.00,VWS V14.01,2013-05-16 15:04:00,
2013-05-16 11:20:00,78.4,50.0,29.97,South,189,3.1,3.1,37,0.00,,---,0.00,VWS V14.01,2013-05-16 15:20:00,